Time;durP1;ratioP1;P1;durP2;ratioP2;P2;SDS_P1;SDS_P2;PMS_P1;PMS_P2;Temp;Humidity;BMP_temperature;BMP_pressure;BME280_temperature;BME280_humidity;BME280_pressure;Samples;Min_cycle;Max_cycle;Signal;HPM_P1;HPM_P2
2022/08/08 00:00:16;;;;;;;10.13;6.28;;;;;;;17.63;100.00;100074.75;1720777;82;21002;-67
2022/08/08 00:03:00;;;;;;;14.15;6.37;;;;;;;17.63;100.00;100072.55;1710756;83;21132;-67
2022/08/08 00:05:36;;;;;;;9.70;6.40;;;;;;;17.58;100.00;100076.23;1713190;83;21549;-66
2022/08/08 00:08:17;;;;;;;10.25;6.20;;;;;;;17.53;100.00;100075.52;1709897;81;21533;-65
2022/08/08 00:11:02;;;;;;;8.30;6.47;;;;;;;17.49;100.00;100082.75;1705887;82;21473;-67
2022/08/08 00:13:42;;;;;;;11.33;6.08;;;;;;;17.47;100.00;100092.68;1701589;81;21038;-68
2022/08/08 00:16:12;;;;;;;13.70;6.78;;;;;;;17.44;100.00;100087.80;1708164;83;20970;-68
2022/08/08 00:19:04;;;;;;;7.10;5.55;;;;;;;17.46;100.00;100086.12;1724925;82;21054;-68
2022/08/08 00:21:37;;;;;;;7.05;5.87;;;;;;;17.51;100.00;100086.00;1706751;82;21018;-66
2022/08/08 00:24:08;;;;;;;14.93;6.40;;;;;;;17.50;100.00;100088.52;1710938;82;21536;-67
2022/08/08 00:26:39;;;;;;;9.68;6.67;;;;;;;17.48;100.00;100091.56;1682574;85;21712;-67
2022/08/08 00:29:28;;;;;;;9.13;6.15;;;;;;;17.48;100.00;100081.11;1672291;84;21565;-69
2022/08/08 00:32:00;;;;;;;8.43;6.05;;;;;;;17.43;100.00;100086.98;1665281;85;21060;-66
2022/08/08 00:35:13;;;;;;;9.98;6.60;;;;;;;17.41;100.00;100087.86;1668228;84;21078;-67
2022/08/08 00:37:51;;;;;;;11.80;6.35;;;;;;;17.43;100.00;100078.49;1651870;85;21783;-67
2022/08/08 00:40:47;;;;;;;11.35;5.80;;;;;;;17.41;100.00;100085.67;1651916;85;21028;-67
2022/08/08 00:44:02;;;;;;;11.35;6.15;;;;;;;17.39;100.00;100090.68;1701189;83;21031;-68
2022/08/08 00:47:15;;;;;;;11.85;5.90;;;;;;;17.37;100.00;100086.03;1709690;82;21527;-67
2022/08/08 00:50:04;;;;;;;10.05;6.70;;;;;;;17.38;100.00;100089.04;1706380;82;21585;-68
2022/08/08 00:52:56;;;;;;;9.80;6.20;;;;;;;17.40;100.00;100090.36;1717132;81;21019;-66
2022/08/08 00:55:57;;;;;;;10.70;5.78;;;;;;;17.45;100.00;100086.69;1669191;85;20965;-67
2022/08/08 00:59:03;;;;;;;12.80;6.47;;;;;;;17.43;100.00;100080.66;1700719;82;21070;-66
2022/08/08 01:01:53;;;;;;;13.18;6.65;;;;;;;17.37;100.00;100081.34;1713414;82;21515;-67
2022/08/08 01:05:17;;;;;;;8.90;5.17;;;;;;;17.32;100.00;100086.94;1699893;82;21104;-67
2022/08/08 01:08:12;;;;;;;9.43;6.60;;;;;;;17.33;100.00;100085.83;1697231;82;21109;-68
2022/08/08 01:11:17;;;;;;;11.25;5.97;;;;;;;17.27;100.00;100080.19;1699547;82;21063;-67
2022/08/08 01:13:57;;;;;;;9.98;6.03;;;;;;;17.23;100.00;100077.80;1702514;83;21620;-68
2022/08/08 01:17:06;;;;;;;8.03;5.70;;;;;;;17.22;100.00;100078.09;1699869;82;21045;-67
2022/08/08 01:19:56;;;;;;;12.53;5.97;;;;;;;17.22;100.00;100081.66;1705825;82;21160;-68
2022/08/08 01:22:58;;;;;;;7.35;5.40;;;;;;;17.19;100.00;100079.53;1701584;82;21039;-68
2022/08/08 01:26:04;;;;;;;9.28;5.87;;;;;;;17.19;100.00;100080.08;1706193;82;21525;-68
2022/08/08 01:29:17;;;;;;;11.88;6.12;;;;;;;17.18;100.00;100080.64;1673685;84;21119;-67
2022/08/08 01:32:12;;;;;;;11.80;5.78;;;;;;;17.22;100.00;100082.22;1707185;83;21018;-68
2022/08/08 01:35:18;;;;;;;10.40;6.50;;;;;;;17.20;100.00;100083.91;1706895;82;21091;-68
2022/08/08 01:38:28;;;;;;;8.98;6.17;;;;;;;17.23;100.00;100083.85;1713692;82;21622;-68
2022/08/08 01:41:22;;;;;;;8.95;5.65;;;;;;;17.24;100.00;100082.19;1714281;83;20964;-68
2022/08/08 01:43:58;;;;;;;11.28;6.20;;;;;;;17.26;100.00;100082.68;1711887;82;21063;-67
2022/08/08 01:47:01;;;;;;;9.40;5.80;;;;;;;17.25;100.00;100083.79;1714217;82;21818;-68
2022/08/08 01:49:51;;;;;;;9.15;6.22;;;;;;;17.24;100.00;100082.19;1687971;83;21126;-68
2022/08/08 01:52:35;;;;;;;10.65;6.62;;;;;;;17.16;100.00;100085.64;1678050;83;21019;-67
2022/08/08 01:55:27;;;;;;;11.40;5.60;;;;;;;17.16;100.00;100086.20;1707889;82;21479;-66
2022/08/08 01:58:27;;;;;;;9.00;6.92;;;;;;;17.18;100.00;100080.64;1710511;82;21557;-68
2022/08/08 02:01:16;;;;;;;9.23;5.90;;;;;;;17.16;100.00;100085.64;1718545;83;21003;-68
2022/08/08 02:04:17;;;;;;;13.75;6.90;;;;;;;17.18;100.00;100088.11;1683209;83;21620;-67
2022/08/08 02:07:05;;;;;;;10.18;6.85;;;;;;;17.18;100.00;100088.11;1717425;83;21609;-68
2022/08/08 02:10:04;;;;;;;9.40;6.30;;;;;;;17.17;100.00;100091.41;1706642;83;21111;-69
2022/08/08 02:12:38;;;;;;;9.50;6.57;;;;;;;17.13;100.00;100085.45;1716127;82;21110;-70
2022/08/08 02:15:27;;;;;;;16.87;7.30;;;;;;;17.12;100.00;100094.81;1714695;83;21070;-67
2022/08/08 02:18:07;;;;;;;10.80;6.42;;;;;;;17.17;100.00;100092.78;1704572;82;21007;-68
2022/08/08 02:23:52;;;;;;;11.63;6.80;;;;;;;17.20;100.00;100093.55;1714506;82;21140;-67
2022/08/08 02:26:33;;;;;;;8.23;6.25;;;;;;;17.19;100.00;100082.83;1700578;83;21011;-67
2022/08/08 02:29:26;;;;;;;10.18;5.95;;;;;;;17.22;100.00;100087.72;1706734;82;21540;-68
2022/08/08 02:32:50;;;;;;;8.85;6.80;;;;;;;17.16;100.00;100085.64;1714549;81;21021;-68
2022/08/08 02:36:09;;;;;;;11.50;7.08;;;;;;;17.12;100.00;100086.00;1704008;82;21024;-68
2022/08/08 02:39:21;;;;;;;10.08;6.97;;;;;;;17.15;100.00;100089.51;1721301;82;21541;-67
2022/08/08 02:42:05;;;;;;;10.72;6.58;;;;;;;17.16;100.00;100087.58;1701820;82;21513;-67
2022/08/08 02:44:58;;;;;;;11.28;7.10;;;;;;;17.17;100.00;100087.28;1718212;83;21102;-67
2022/08/08 02:47:55;;;;;;;13.35;6.72;;;;;;;17.16;100.00;100091.15;1720537;82;21056;-67
2022/08/08 02:50:43;;;;;;;9.90;6.80;;;;;;;17.13;100.00;100089.02;1713409;82;21034;-67
2022/08/08 02:53:48;;;;;;;11.93;7.30;;;;;;;17.12;100.00;100083.81;1702298;82;21063;-67
2022/08/08 02:56:57;;;;;;;11.00;7.72;;;;;;;17.11;100.00;100092.61;1710227;83;21530;-67
2022/08/08 03:00:01;;;;;;;12.40;8.40;;;;;;;17.14;100.00;100092.03;1717287;82;21660;-68
2022/08/08 03:03:00;;;;;;;12.58;7.83;;;;;;;17.17;100.00;100096.09;1699770;82;21555;-68
2022/08/08 03:06:10;;;;;;;15.30;8.53;;;;;;;17.16;100.00;100091.70;1715732;83;20943;-69
2022/08/08 03:09:20;;;;;;;11.53;8.70;;;;;;;17.21;100.00;100101.23;1710664;82;21083;-67
2022/08/08 03:12:37;;;;;;;9.85;7.58;;;;;;;17.21;100.00;100097.94;1717965;82;21019;-67
2022/08/08 03:15:25;;;;;;;14.45;8.23;;;;;;;17.29;100.00;100101.87;1709991;83;20992;-67
2022/08/08 03:18:18;;;;;;;15.88;9.53;;;;;;;17.33;100.00;100108.40;1645045;86;21541;-68
2022/08/08 03:20:49;;;;;;;11.28;7.25;;;;;;;17.36;100.00;100109.97;1696583;82;21056;-67
2022/08/08 03:23:17;;;;;;;12.07;6.70;;;;;;;17.35;100.00;100111.12;1709095;82;21070;-69
2022/08/08 03:25:44;;;;;;;10.48;6.47;;;;;;;17.36;100.00;100116.03;1711483;82;21511;-69
2022/08/08 03:28:37;;;;;;;11.40;7.28;;;;;;;17.39;100.00;100115.45;1702147;83;21032;-68
2022/08/08 03:33:17;;;;;;;18.95;9.75;;;;;;;17.41;100.00;100109.88;1681076;84;21045;-68
2022/08/08 03:33:34;;;;;;;13.30;7.78;;;;;;;17.45;100.00;100107.88;1704418;83;21095;-68
2022/08/08 03:36:01;;;;;;;16.45;8.13;;;;;;;17.51;100.00;100112.14;1677187;83;21003;-68
2022/08/08 03:38:28;;;;;;;11.30;6.92;;;;;;;17.53;100.00;100109.92;1693648;82;21084;-68
2022/08/08 03:40:55;;;;;;;12.95;7.78;;;;;;;17.49;100.00;100115.78;1702739;82;21012;-68
2022/08/08 03:43:24;;;;;;;12.25;7.65;;;;;;;17.43;100.00;100111.52;1702867;83;21073;-70
2022/08/08 03:45:52;;;;;;;10.78;6.40;;;;;;;17.38;100.00;100114.63;1718414;82;21027;-69
2022/08/08 03:48:19;;;;;;;12.78;6.45;;;;;;;17.38;100.00;100116.00;1695242;82;21069;-70
2022/08/08 03:50:47;;;;;;;12.45;7.67;;;;;;;17.39;100.00;100112.11;1707133;83;21365;-69
2022/08/08 03:53:18;;;;;;;10.30;7.05;;;;;;;17.40;100.00;100117.88;1713228;83;21084;-69
2022/08/08 03:55:47;;;;;;;9.45;7.55;;;;;;;17.40;100.00;100112.92;1700523;82;21056;-69
2022/08/08 03:58:22;;;;;;;12.07;7.80;;;;;;;17.40;100.00;100122.56;1685407;82;21069;-68
2022/08/08 04:00:52;;;;;;;10.68;7.92;;;;;;;17.49;100.00;100120.73;1674696;82;21061;-68
2022/08/08 04:03:19;;;;;;;16.07;8.13;;;;;;;17.53;100.00;100113.48;1682460;84;21617;-68
2022/08/08 04:05:46;;;;;;;10.85;8.00;;;;;;;17.52;100.00;100117.91;1679406;84;21013;-68
2022/08/08 04:08:19;;;;;;;8.80;6.33;;;;;;;17.50;100.00;100121.55;1709239;82;21078;-67
2022/08/08 04:10:48;;;;;;;12.78;8.93;;;;;;;17.55;100.00;100123.61;1709410;83;20992;-68
2022/08/08 04:13:17;;;;;;;9.63;7.60;;;;;;;17.59;100.00;100127.42;1693586;83;21085;-67
2022/08/08 04:15:43;;;;;;;9.08;7.22;;;;;;;17.66;100.00;100129.19;1690199;82;21027;-68
2022/08/08 04:18:10;;;;;;;11.60;7.12;;;;;;;17.70;100.00;100126.62;1694279;82;21069;-67
2022/08/08 04:20:38;;;;;;;11.85;7.58;;;;;;;17.67;100.00;100124.50;1705461;83;21072;-68
2022/08/08 04:23:05;;;;;;;14.53;6.70;;;;;;;17.67;100.00;100123.95;1704432;84;21062;-67
2022/08/08 04:25:32;;;;;;;14.75;7.40;;;;;;;17.66;100.00;100124.23;1703937;84;21581;-67
2022/08/08 04:27:58;;;;;;;15.15;9.10;;;;;;;17.63;100.00;100128.99;1700772;82;21134;-67
2022/08/08 04:30:25;;;;;;;11.12;8.38;;;;;;;17.60;100.00;100122.17;1691694;83;21016;-68
2022/08/08 04:32:52;;;;;;;10.68;6.53;;;;;;;17.57;100.00;100128.86;1717155;81;21062;-67
2022/08/08 04:35:20;;;;;;;9.35;7.03;;;;;;;17.57;100.00;100131.02;1715780;82;21471;-68
2022/08/08 04:37:47;;;;;;;8.25;5.90;;;;;;;17.53;100.00;100131.38;1719647;83;21152;-68
2022/08/08 04:40:15;;;;;;;8.68;6.10;;;;;;;17.53;100.00;100136.06;1716783;82;21561;-67
2022/08/08 04:42:50;;;;;;;11.03;6.65;;;;;;;17.53;100.00;100134.69;1714477;82;21110;-68
2022/08/08 04:45:17;;;;;;;10.55;6.12;;;;;;;17.57;100.00;100132.98;1705495;83;20975;-68
2022/08/08 04:47:44;;;;;;;9.45;6.92;;;;;;;17.65;100.00;100134.99;1708471;83;21073;-67
2022/08/08 04:50:10;;;;;;;9.63;6.25;;;;;;;17.72;100.00;100136.77;1714027;82;21089;-68
2022/08/08 04:52:38;;;;;;;11.50;6.87;;;;;;;17.77;100.00;100136.66;1719825;82;21845;-68
2022/08/08 04:55:07;;;;;;;12.15;7.10;;;;;;;17.77;100.00;100140.23;1683762;83;21492;-67
2022/08/08 04:57:35;;;;;;;8.05;5.95;;;;;;;17.78;100.00;100139.67;1710489;82;21580;-67
2022/08/08 05:00:04;;;;;;;8.15;6.03;;;;;;;17.80;100.00;100147.05;1709739;83;21062;-68
2022/08/08 05:02:32;;;;;;;8.90;6.10;;;;;;;17.76;100.00;100142.72;1694291;84;21015;-67
2022/08/08 05:04:59;;;;;;;8.75;6.30;;;;;;;17.74;100.00;100144.17;1676432;84;21051;-67
2022/08/08 05:07:26;;;;;;;9.48;5.75;;;;;;;17.65;100.00;100148.75;1676343;85;21478;-67
2022/08/08 05:09:53;;;;;;;10.82;6.87;;;;;;;17.58;100.00;100145.61;1628903;87;21107;-68
2022/08/08 05:12:19;;;;;;;;;;;;;;;17.56;100.00;100139.58;1676947;84;21077;-68
2022/08/08 05:14:46;;;;;;;9.40;5.67;;;;;;;17.55;100.00;100146.20;1673640;84;20125;-68
2022/08/08 05:17:12;;;;;;;7.37;5.40;;;;;;;17.49;100.00;100150.19;1667938;85;21551;-68
2022/08/08 05:19:39;;;;;;;7.83;5.78;;;;;;;17.49;100.00;100156.51;1674927;84;21110;-67
2022/08/08 05:22:08;;;;;;;7.95;6.12;;;;;;;17.48;100.00;100161.75;1676262;84;21003;-67
2022/08/08 05:24:35;;;;;;;11.08;5.90;;;;;;;17.48;100.00;100154.88;1644635;85;21090;-67
2022/08/08 05:27:03;;;;;;;8.25;5.87;;;;;;;17.48;100.00;100152.67;1677228;85;21081;-68
2022/08/08 05:29:30;;;;;;;8.73;6.30;;;;;;;17.50;100.00;100160.88;1711777;82;21089;-68
2022/08/08 05:31:57;;;;;;;12.43;6.50;;;;;;;17.48;100.00;100166.44;1715201;82;21485;-68
2022/08/08 05:34:31;;;;;;;9.68;5.78;;;;;;;17.47;100.00;100159.30;1709575;82;21130;-67
2022/08/08 05:36:58;;;;;;;7.33;5.60;;;;;;;17.47;100.00;100160.67;1697016;82;21012;-65
2022/08/08 05:39:24;;;;;;;7.92;5.70;;;;;;;17.46;100.00;100168.14;1705972;82;21107;-66
2022/08/08 05:41:51;;;;;;;13.10;6.85;;;;;;;17.46;100.00;100178.33;1698491;82;20970;-65
2022/08/08 05:44:30;;;;;;;8.08;6.47;;;;;;;17.53;100.00;100180.92;1677767;84;21025;-66
2022/08/08 05:46:57;;;;;;;10.05;7.28;;;;;;;17.55;100.00;100179.23;1688533;82;20975;-65
2022/08/08 05:49:24;;;;;;;8.95;7.00;;;;;;;17.50;100.00;100173.84;1697764;82;21060;-66
2022/08/08 05:51:50;;;;;;;8.70;6.70;;;;;;;17.57;100.00;100182.53;1699498;82;21510;-66
2022/08/08 05:54:19;;;;;;;9.80;7.28;;;;;;;17.60;100.00;100185.48;1696234;82;21619;-65
2022/08/08 05:56:45;;;;;;;10.53;7.30;;;;;;;17.68;100.00;100193.00;1702048;83;20982;-66
2022/08/08 05:59:18;;;;;;;10.95;7.25;;;;;;;17.70;100.00;100186.65;1698748;82;21132;-65
2022/08/08 06:01:57;;;;;;;12.65;7.40;;;;;;;17.63;100.00;100186.25;1705374;82;21003;-66
2022/08/08 06:04:26;;;;;;;17.02;8.00;;;;;;;17.58;100.00;100180.84;1706615;81;21029;-66
2022/08/08 06:06:58;;;;;;;13.85;8.35;;;;;;;17.57;100.00;100183.91;1703030;83;20988;-67
2022/08/08 06:09:31;;;;;;;10.10;6.85;;;;;;;17.58;100.00;100186.89;1687908;83;21099;-66
2022/08/08 06:12:02;;;;;;;10.78;7.62;;;;;;;17.56;100.00;100190.50;1702003;82;21031;-67
2022/08/08 06:14:30;;;;;;;9.90;7.42;;;;;;;17.55;100.00;100180.60;1698363;82;21699;-66
2022/08/08 06:17:00;;;;;;;11.48;7.60;;;;;;;17.58;100.00;100184.96;1697372;83;21446;-66
2022/08/08 06:19:39;;;;;;;16.27;8.18;;;;;;;17.63;100.00;100184.05;1702558;82;21060;-67
2022/08/08 06:22:05;;;;;;;11.00;7.83;;;;;;;17.68;100.00;100186.67;1704632;82;20995;-66
2022/08/08 06:24:34;;;;;;;16.85;7.67;;;;;;;17.66;100.00;100188.38;1710061;82;21071;-66
2022/08/08 06:27:04;;;;;;;9.68;7.03;;;;;;;17.72;100.00;100187.14;1706628;83;21538;-66
2022/08/08 06:29:42;;;;;;;9.78;7.67;;;;;;;17.75;100.00;100185.14;1705071;83;21111;-66
2022/08/08 06:32:10;;;;;;;10.05;7.00;;;;;;;17.75;100.00;100184.32;1693146;83;21655;-66
2022/08/08 06:34:37;;;;;;;11.48;7.33;;;;;;;17.77;100.00;100188.98;1712692;83;21127;-67
2022/08/08 06:37:04;;;;;;;12.65;7.47;;;;;;;17.76;100.00;100185.41;1717980;82;21060;-65
2022/08/08 06:39:31;;;;;;;9.15;7.60;;;;;;;17.78;100.00;100191.99;1705786;82;21555;-66
2022/08/08 06:42:05;;;;;;;9.65;7.62;;;;;;;17.80;100.00;100194.69;1733726;82;21054;-66
2022/08/08 06:44:30;;;;;;;11.70;7.55;;;;;;;17.73;100.00;100187.41;1699681;82;21116;-65
2022/08/08 06:46:57;;;;;;;13.08;7.50;;;;;;;17.71;100.00;100199.86;1704944;83;20989;-66
2022/08/08 06:49:24;;;;;;;12.58;7.58;;;;;;;17.72;100.00;100206.41;1675132;83;21598;-65
2022/08/08 06:51:50;;;;;;;12.25;7.83;;;;;;;17.72;100.00;100196.78;1676490;84;20998;-67
2022/08/08 06:54:20;;;;;;;13.48;8.65;;;;;;;17.72;100.00;100202.84;1711873;82;21038;-66
2022/08/08 06:56:46;;;;;;;14.55;8.85;;;;;;;17.71;100.00;100196.52;1682070;83;21499;-68
2022/08/08 06:59:13;;;;;;;13.68;8.63;;;;;;;17.78;100.00;100201.63;1694966;82;21146;-66
2022/08/08 07:01:47;;;;;;;13.40;9.28;;;;;;;17.81;100.00;100202.39;1689447;82;21108;-68
2022/08/08 07:04:23;;;;;;;14.07;8.33;;;;;;;17.82;100.00;100204.81;1689066;85;21096;-67
2022/08/08 07:06:56;;;;;;;11.43;8.85;;;;;;;17.78;100.00;100205.77;1713850;83;20979;-67
2022/08/08 07:09:46;;;;;;;11.25;8.03;;;;;;;17.79;100.00;100211.50;1714905;82;21515;-67
2022/08/08 07:12:14;;;;;;;10.25;8.10;;;;;;;17.77;100.00;100210.45;1710800;83;21000;-66
2022/08/08 07:14:52;;;;;;;13.72;8.38;;;;;;;17.77;100.00;100209.63;1702107;82;21072;-67
2022/08/08 07:17:23;;;;;;;16.48;11.95;;;;;;;17.85;100.00;100216.59;1690691;83;21074;-67
2022/08/08 07:20:07;;;;;;;17.80;9.63;;;;;;;17.98;100.00;100222.39;1709709;82;21082;-67
2022/08/08 07:22:46;;;;;;;16.57;10.05;;;;;;;18.04;100.00;100221.97;1709739;82;21013;-67
2022/08/08 07:25:14;;;;;;;14.47;9.65;;;;;;;17.94;100.00;100220.00;1717516;83;21104;-66
2022/08/08 07:27:47;;;;;;;11.78;9.15;;;;;;;17.98;100.00;100225.97;1678622;83;21101;-69
2022/08/08 07:30:14;;;;;;;15.85;9.48;;;;;;;18.00;100.00;100229.77;1711818;83;21629;-69
2022/08/08 07:32:41;;;;;;;11.65;9.73;;;;;;;17.99;100.00;100223.48;1679175;82;21120;-69
2022/08/08 07:35:08;;;;;;;11.68;9.75;;;;;;;18.06;100.00;100223.05;1710028;83;21597;-69
2022/08/08 07:37:37;;;;;;;15.40;10.63;;;;;;;18.17;100.00;100224.46;1696591;82;21051;-69
2022/08/08 07:40:05;;;;;;;20.08;10.25;;;;;;;18.24;100.00;100222.09;1720980;83;21523;-68
2022/08/08 07:42:32;;;;;;;19.52;11.15;;;;;;;18.32;100.00;100229.04;1720353;83;21536;-69
2022/08/08 07:44:58;;;;;;;13.50;10.68;;;;;;;18.38;100.00;100231.95;1692151;83;21021;-69
2022/08/08 07:47:25;;;;;;;15.25;10.80;;;;;;;18.40;100.00;100229.69;1720609;82;21462;-69
2022/08/08 07:49:51;;;;;;;13.38;9.55;;;;;;;18.43;100.00;100227.42;1690206;85;21024;-67
2022/08/08 07:52:18;;;;;;;16.73;11.38;;;;;;;18.44;100.00;100234.02;1675592;85;21042;-67
2022/08/08 07:54:58;;;;;;;13.10;9.85;;;;;;;18.40;100.00;100228.31;1670582;86;21035;-66
2022/08/08 07:57:39;;;;;;;14.18;10.30;;;;;;;18.42;100.00;100228.56;1661006;85;21517;-69
2022/08/08 08:00:11;;;;;;;13.13;10.03;;;;;;;18.39;100.00;100236.31;1661928;85;21528;-68
2022/08/08 08:02:56;;;;;;;14.33;9.05;;;;;;;18.40;100.00;100237.14;1709998;82;21074;-67
2022/08/08 08:05:26;;;;;;;15.13;10.35;;;;;;;18.39;100.00;100235.50;1717211;83;21049;-67
2022/08/08 08:08:17;;;;;;;15.13;10.40;;;;;;;18.50;100.00;100238.27;1682259;85;21579;-67
2022/08/08 08:10:51;;;;;;;11.48;8.70;;;;;;;18.62;100.00;100242.71;1715588;82;21054;-67
2022/08/08 08:13:44;;;;;;;12.58;8.80;;;;;;;18.72;100.00;100247.97;1710492;83;21059;-67
2022/08/08 08:16:20;;;;;;;13.85;9.38;;;;;;;18.82;100.00;100247.72;1721226;83;21001;-67
2022/08/08 08:18:55;;;;;;;11.78;8.45;;;;;;;18.95;100.00;100256.25;1723071;83;21039;-69
2022/08/08 08:21:23;;;;;;;14.07;10.68;;;;;;;18.91;100.00;100242.27;1721240;83;21530;-66
2022/08/08 08:23:50;;;;;;;15.95;10.43;;;;;;;18.91;100.00;100245.59;1707053;83;21063;-66
2022/08/08 08:26:17;;;;;;;13.30;9.68;;;;;;;18.89;100.00;100245.89;1721954;82;21559;-67
2022/08/08 08:28:44;;;;;;;11.65;8.53;;;;;;;18.87;100.00;100239.89;1681296;83;21131;-66
2022/08/08 08:31:11;;;;;;;11.88;9.88;;;;;;;18.89;100.00;100242.57;1711467;82;21022;-67
2022/08/08 08:33:38;;;;;;;11.05;9.00;;;;;;;18.91;100.00;100243.65;1715788;82;21706;-66
2022/08/08 08:36:10;;;;;;;10.25;8.83;;;;;;;18.86;100.00;100243.77;1693746;83;21007;-67
2022/08/08 08:38:38;;;;;;;15.38;10.03;;;;;;;18.88;100.00;100240.14;1710306;82;21123;-66
2022/08/08 08:41:08;;;;;;;11.65;8.15;;;;;;;19.01;100.00;100253.60;1720786;83;21001;-70
2022/08/08 08:43:34;;;;;;;15.63;9.85;;;;;;;19.09;100.00;100247.33;1728749;81;21039;-69
2022/08/08 08:46:02;;;;;;;15.68;10.38;;;;;;;19.18;100.00;100246.80;1716857;83;21023;-68
2022/08/08 08:48:31;;;;;;;11.53;9.28;;;;;;;19.13;100.00;100240.05;1682409;83;21115;-66
2022/08/08 08:50:58;;;;;;;13.18;9.15;;;;;;;19.10;100.00;100241.48;1715485;82;21020;-67
2022/08/08 08:53:24;;;;;;;11.50;8.60;;;;;;;19.11;100.00;100246.44;1713034;82;21031;-67
2022/08/08 08:55:55;;;;;;;13.18;9.48;;;;;;;19.23;100.00;100253.02;1710481;83;21002;-66
2022/08/08 08:58:40;;;;;;;14.35;10.13;;;;;;;19.29;100.00;100244.02;1693989;83;21612;-66
2022/08/08 09:01:10;;;;;;;14.98;9.73;;;;;;;19.33;100.00;100242.27;1684529;84;21082;-66
2022/08/08 09:03:39;;;;;;;14.33;9.38;;;;;;;19.39;100.00;100249.27;1662556;85;21640;-67
2022/08/08 09:06:10;;;;;;;10.63;8.78;;;;;;;19.42;100.00;100243.70;1679539;85;21037;-66
2022/08/08 09:08:38;;;;;;;10.88;9.35;;;;;;;19.50;100.00;100247.89;1677655;85;21099;-68
2022/08/08 09:11:06;;;;;;;12.88;10.03;;;;;;;19.67;100.00;100245.75;1683007;84;21070;-67
2022/08/08 09:13:35;;;;;;;11.10;9.75;;;;;;;19.65;100.00;100243.89;1671298;85;21082;-67
2022/08/08 09:16:02;;;;;;;9.55;8.35;;;;;;;19.65;100.00;100242.51;1666613;86;21051;-68
2022/08/08 09:18:30;;;;;;;10.05;7.97;;;;;;;19.72;100.00;100235.95;1673806;85;21141;-68
2022/08/08 09:20:58;;;;;;;10.10;8.08;;;;;;;19.77;100.00;100232.46;1667722;85;21018;-67
2022/08/08 09:23:24;;;;;;;10.28;9.03;;;;;;;19.84;100.00;100237.52;1644944;86;21830;-69
2022/08/08 09:25:58;;;;;;;8.45;7.35;;;;;;;19.93;100.00;100235.60;1653785;85;21054;-69
2022/08/08 09:28:27;;;;;;;8.68;7.72;;;;;;;20.04;100.00;100233.34;1625391;86;21094;-70
2022/08/08 09:30:57;;;;;;;8.20;7.35;;;;;;;20.14;100.00;100232.47;1672950;86;21042;-68
2022/08/08 09:33:23;;;;;;;9.68;7.75;;;;;;;20.26;100.00;100234.02;1665978;86;21077;-68
2022/08/08 09:35:50;;;;;;;10.80;8.10;;;;;;;20.41;100.00;100234.70;1657145;85;21436;-67
2022/08/08 09:38:54;;;;;;;10.05;8.45;;;;;;;20.43;100.00;100223.59;1669112;84;21039;-66
2022/08/08 09:41:38;;;;;;;9.90;7.97;;;;;;;20.49;100.00;100225.60;1637840;87;21022;-70
2022/08/08 09:44:47;;;;;;;9.08;7.08;;;;;;;20.66;100.00;100219.49;1639381;85;21622;-66
2022/08/08 09:47:14;;;;;;;8.38;7.35;;;;;;;20.59;100.00;100223.32;1610839;87;20979;-67
2022/08/08 09:49:41;;;;;;;7.37;6.67;;;;;;;20.55;100.00;100220.96;1624204;87;21162;-67
2022/08/08 09:52:07;;;;;;;7.85;7.05;;;;;;;20.64;100.00;100233.41;1636464;85;21035;-65
2022/08/08 09:54:43;;;;;;;10.18;7.72;;;;;;;20.68;100.00;100224.71;1671274;84;21099;-66
2022/08/08 09:57:10;;;;;;;7.92;6.83;;;;;;;20.64;100.00;100227.88;1648045;85;20992;-68
2022/08/08 09:59:40;;;;;;;11.28;7.25;;;;;;;20.65;100.00;100229.52;1666973;85;21050;-65
2022/08/08 10:02:07;;;;;;;8.28;7.28;;;;;;;20.62;100.00;100230.96;1672685;84;21003;-68
2022/08/08 10:04:34;;;;;;;10.65;8.28;;;;;;;20.57;100.00;100228.94;1673610;84;21086;-68
2022/08/08 10:07:03;;;;;;;10.40;8.00;;;;;;;20.46;100.00;100230.41;1673820;84;21332;-67
2022/08/08 10:09:32;;;;;;;10.68;8.03;;;;;;;20.31;100.00;100226.98;1682868;84;21054;-68
2022/08/08 10:12:03;;;;;;;10.00;8.30;;;;;;;20.20;100.00;100233.94;1673607;85;21046;-67
2022/08/08 10:14:33;;;;;;;9.33;8.33;;;;;;;20.12;100.00;100224.27;1671375;84;21609;-65
2022/08/08 10:17:05;;;;;;;10.30;8.50;;;;;;;20.19;100.00;100244.73;1677809;84;21043;-66
2022/08/08 10:19:38;;;;;;;10.98;9.43;;;;;;;20.20;100.00;100241.41;1662288;82;21165;-68
2022/08/08 10:22:06;;;;;;;12.82;9.53;;;;;;;20.13;100.00;100237.74;1678403;84;21501;-72
2022/08/08 10:24:33;;;;;;;13.62;9.70;;;;;;;20.08;100.00;100242.06;1662953;84;21260;-71
2022/08/08 10:27:05;;;;;;;10.63;8.75;;;;;;;20.02;100.00;100240.56;1663062;85;21027;-68
2022/08/08 10:29:53;;;;;;;11.93;9.90;;;;;;;19.94;100.00;100244.71;1681051;82;21641;-69
2022/08/08 10:32:40;;;;;;;12.43;9.83;;;;;;;19.91;100.00;100243.38;1673082;84;21017;-67
2022/08/08 10:35:16;;;;;;;13.00;10.82;;;;;;;19.81;100.00;100250.59;1639256;82;21040;-72
2022/08/08 10:38:02;;;;;;;11.85;9.80;;;;;;;19.73;100.00;100242.52;1704869;82;21183;-66
2022/08/08 10:40:30;;;;;;;12.30;9.97;;;;;;;19.72;100.00;100248.38;1659137;84;21089;-67
2022/08/08 10:43:03;;;;;;;15.98;11.20;;;;;;;19.69;100.00;100249.84;1709931;84;21103;-67
2022/08/08 10:45:32;;;;;;;17.02;10.13;;;;;;;19.74;100.00;100257.15;1686978;84;21028;-68
2022/08/08 10:47:59;;;;;;;12.63;9.95;;;;;;;19.77;100.00;100252.36;1660108;83;21131;-68
2022/08/08 10:50:35;;;;;;;11.70;9.70;;;;;;;19.75;100.00;100244.41;1702035;82;21538;-69
2022/08/08 10:53:06;;;;;;;12.82;10.05;;;;;;;19.81;100.00;100249.21;1708854;82;21055;-71
2022/08/08 10:55:33;;;;;;;12.88;11.10;;;;;;;19.83;100.00;100248.34;1703929;83;21109;-68
2022/08/08 10:58:08;;;;;;;11.88;10.38;;;;;;;19.80;100.00;100244.25;1680458;84;21101;-68
2022/08/08 11:00:36;;;;;;;14.10;10.95;;;;;;;19.78;100.00;100241.56;1698805;84;21013;-72
2022/08/08 11:03:12;;;;;;;11.03;9.15;;;;;;;19.78;100.00;100246.53;1706016;82;21126;-69
2022/08/08 11:05:48;;;;;;;10.65;9.00;;;;;;;19.85;100.00;100250.20;1710949;83;21057;-67
2022/08/08 11:08:22;;;;;;;;;;;;;;;19.92;100.00;100248.34;1709597;82;21111;-71
2022/08/08 11:10:48;;;;;;;18.12;12.25;;;;;;;19.96;100.00;100247.39;1709814;83;20117;-70
2022/08/08 11:13:20;;;;;;;14.00;10.15;;;;;;;19.82;100.00;100240.61;1705922;82;21063;-67
2022/08/08 11:15:48;;;;;;;14.65;11.60;;;;;;;19.75;100.00;100245.80;1711608;83;21063;-68
2022/08/08 11:18:14;;;;;;;13.80;10.58;;;;;;;19.72;100.00;100251.14;1707516;82;21130;-72
2022/08/08 11:20:41;;;;;;;14.70;10.82;;;;;;;19.73;100.00;100243.11;1703593;82;21610;-68
2022/08/08 11:23:07;;;;;;;12.25;10.28;;;;;;;19.72;100.00;100247.82;1680550;82;21069;-68
2022/08/08 11:25:34;;;;;;;13.53;9.95;;;;;;;19.72;100.00;100239.53;1687453;83;21448;-69
2022/08/08 11:28:02;;;;;;;12.60;10.10;;;;;;;19.75;100.00;100241.65;1716515;82;21011;-72
2022/08/08 11:30:32;;;;;;;12.00;10.03;;;;;;;19.81;100.00;100238.98;1704728;82;21063;-72
2022/08/08 11:33:03;;;;;;;10.70;8.68;;;;;;;19.88;100.00;100237.13;1689701;83;21617;-73
2022/08/08 11:35:30;;;;;;;12.13;9.53;;;;;;;19.92;100.00;100231.20;1695716;83;21123;-68
2022/08/08 11:37:57;;;;;;;10.95;9.10;;;;;;;20.02;100.00;100225.37;1716233;82;21043;-70
2022/08/08 11:40:23;;;;;;;9.70;7.83;;;;;;;20.23;100.00;100229.70;1711926;83;21094;-71
2022/08/08 11:42:50;;;;;;;9.98;8.53;;;;;;;20.42;100.00;100227.48;1699677;82;21620;-71
2022/08/08 11:45:16;;;;;;;11.48;8.73;;;;;;;20.56;100.00;100218.45;1684356;83;21569;-69
2022/08/08 11:50:13;;;;;;;9.53;8.45;;;;;;;20.72;100.00;100214.63;1794286;78;22962;-66
2022/08/08 11:52:40;;;;;;;12.90;8.35;;;;;;;20.75;100.00;100220.88;1726081;82;21048;-66
2022/08/08 11:55:26;;;;;;;10.40;6.97;;;;;;;20.87;100.00;100211.92;1731349;81;21035;-66
2022/08/08 11:58:05;;;;;;;14.20;7.72;;;;;;;21.02;100.00;100216.34;1736786;82;20999;-65